YBG weather

CFB Bagotville
Bagotville, Quebec, Canada

Public forecast

Using degrees Celsius for public forecast. Weather courtesy of forecast.io.

Current aviation weather report (METAR) for CFB Bagotville

Retrieved 2020/07/05 01:00 UTC (9 minutes ago):

CYBG 050100Z 24005KT 25SM BKN230 17/08 A2992 RMK CI7 SLP132

Aviation forecast (TAF) for CFB Bagotville

Retrieved 2020-07-05 00:33 UTC (36 minutes ago):

TAF TAF CYBG 042330Z 0500/0524 27008KT P6SM FEW060 BKN230 BECMG 0500/0502 VRB03KT FM050800 VRB03KT P6SM BKN120 OVC200 FM051200 VRB03KT P6SM SCT040 BKN080 OVC180 TEMPO 0512/0524 P6SM -SHRA BKN040 OVC080 RMK NXT FCST BY 050600Z